sensor_id;sensor_type;location;lat;lon;timestamp;temperature;humidity
35463;DHT22;21578;47.892;9.970;2022-10-22T00:00:38;13.20;96.60
35463;DHT22;21578;47.892;9.970;2022-10-22T00:05:25;13.20;96.60
35463;DHT22;21578;47.892;9.970;2022-10-22T00:10:12;13.20;96.60
35463;DHT22;21578;47.892;9.970;2022-10-22T00:14:59;13.30;96.60
35463;DHT22;21578;47.892;9.970;2022-10-22T00:19:48;13.40;96.60
35463;DHT22;21578;47.892;9.970;2022-10-22T00:24:36;12.70;96.60
35463;DHT22;21578;47.892;9.970;2022-10-22T00:29:23;12.30;96.60
35463;DHT22;21578;47.892;9.970;2022-10-22T00:34:10;12.20;96.60
35463;DHT22;21578;47.892;9.970;2022-10-22T00:38:59;12.10;96.60
35463;DHT22;21578;47.892;9.970;2022-10-22T00:43:54;12.00;96.60
35463;DHT22;21578;47.892;9.970;2022-10-22T00:48:41;12.00;96.60
35463;DHT22;21578;47.892;9.970;2022-10-22T00:53:34;12.00;96.60
35463;DHT22;21578;47.892;9.970;2022-10-22T00:58:26;12.00;96.60
35463;DHT22;21578;47.892;9.970;2022-10-22T01:03:14;11.90;96.60
35463;DHT22;21578;47.892;9.970;2022-10-22T01:08:01;11.90;96.60
35463;DHT22;21578;47.892;9.970;2022-10-22T01:12:54;11.80;96.60
35463;DHT22;21578;47.892;9.970;2022-10-22T01:17:52;11.80;96.60
35463;DHT22;21578;47.892;9.970;2022-10-22T01:22:43;11.80;96.60
35463;DHT22;21578;47.892;9.970;2022-10-22T01:27:41;11.70;96.60
35463;DHT22;21578;47.892;9.970;2022-10-22T01:32:36;11.80;96.60
35463;DHT22;21578;47.892;9.970;2022-10-22T01:37:26;11.90;96.60
35463;DHT22;21578;47.892;9.970;2022-10-22T01:42:14;11.90;96.60
35463;DHT22;21578;47.892;9.970;2022-10-22T01:47:15;11.80;96.60
35463;DHT22;21578;47.892;9.970;2022-10-22T01:52:14;11.80;96.60
35463;DHT22;21578;47.892;9.970;2022-10-22T01:57:07;11.90;96.60
35463;DHT22;21578;47.892;9.970;2022-10-22T02:02:01;11.80;96.60
35463;DHT22;21578;47.892;9.970;2022-10-22T02:06:51;11.80;96.60
35463;DHT22;21578;47.892;9.970;2022-10-22T02:11:42;11.80;96.60
35463;DHT22;21578;47.892;9.970;2022-10-22T02:16:33;11.80;96.60
35463;DHT22;21578;47.892;9.970;2022-10-22T02:21:21;11.80;96.60
35463;DHT22;21578;47.892;9.970;2022-10-22T02:26:13;11.90;96.60
35463;DHT22;21578;47.892;9.970;2022-10-22T02:31:08;11.80;96.60
35463;DHT22;21578;47.892;9.970;2022-10-22T02:35:58;11.80;96.60
35463;DHT22;21578;47.892;9.970;2022-10-22T02:40:46;11.80;96.60
35463;DHT22;21578;47.892;9.970;2022-10-22T02:45:33;11.80;96.60
35463;DHT22;21578;47.892;9.970;2022-10-22T02:50:22;11.80;96.60
35463;DHT22;21578;47.892;9.970;2022-10-22T02:55:09;11.70;96.60
35463;DHT22;21578;47.892;9.970;2022-10-22T02:59:56;11.70;96.60
35463;DHT22;21578;47.892;9.970;2022-10-22T03:04:44;11.80;96.60
35463;DHT22;21578;47.892;9.970;2022-10-22T03:09:33;11.70;96.60
35463;DHT22;21578;47.892;9.970;2022-10-22T03:14:20;11.70;96.60
35463;DHT22;21578;47.892;9.970;2022-10-22T03:19:07;11.70;96.60
35463;DHT22;21578;47.892;9.970;2022-10-22T03:23:55;11.70;96.60
35463;DHT22;21578;47.892;9.970;2022-10-22T03:28:44;11.70;96.60
35463;DHT22;21578;47.892;9.970;2022-10-22T03:33:33;11.70;96.60
35463;DHT22;21578;47.892;9.970;2022-10-22T03:38:20;11.70;96.60
35463;DHT22;21578;47.892;9.970;2022-10-22T03:43:07;11.60;96.60
35463;DHT22;21578;47.892;9.970;2022-10-22T03:47:56;11.60;96.60
35463;DHT22;21578;47.892;9.970;2022-10-22T03:52:43;11.50;96.60
35463;DHT22;21578;47.892;9.970;2022-10-22T03:57:30;11.50;96.60
35463;DHT22;21578;47.892;9.970;2022-10-22T04:02:17;11.50;96.60
35463;DHT22;21578;47.892;9.970;2022-10-22T04:07:06;11.60;96.60
35463;DHT22;21578;47.892;9.970;2022-10-22T04:11:53;11.60;96.60
35463;DHT22;21578;47.892;9.970;2022-10-22T04:16:40;11.60;96.60
35463;DHT22;21578;47.892;9.970;2022-10-22T04:21:28;11.60;96.60
35463;DHT22;21578;47.892;9.970;2022-10-22T04:26:17;11.60;96.60
35463;DHT22;21578;47.892;9.970;2022-10-22T04:31:07;11.60;96.60
35463;DHT22;21578;47.892;9.970;2022-10-22T04:35:54;11.50;96.60
35463;DHT22;21578;47.892;9.970;2022-10-22T04:40:42;11.70;96.60
35463;DHT22;21578;47.892;9.970;2022-10-22T04:45:31;11.60;96.60
35463;DHT22;21578;47.892;9.970;2022-10-22T04:50:19;11.60;96.60
35463;DHT22;21578;47.892;9.970;2022-10-22T04:55:06;11.60;96.60
35463;DHT22;21578;47.892;9.970;2022-10-22T04:59:53;11.60;96.60
35463;DHT22;21578;47.892;9.970;2022-10-22T05:04:44;11.60;96.60
35463;DHT22;21578;47.892;9.970;2022-10-22T05:09:31;11.50;96.60
35463;DHT22;21578;47.892;9.970;2022-10-22T05:14:20;11.60;96.60
35463;DHT22;21578;47.892;9.970;2022-10-22T05:19:07;11.50;96.60
35463;DHT22;21578;47.892;9.970;2022-10-22T05:23:56;11.50;96.60
35463;DHT22;21578;47.892;9.970;2022-10-22T05:28:45;11.60;96.60
35463;DHT22;21578;47.892;9.970;2022-10-22T05:33:33;11.50;96.60
35463;DHT22;21578;47.892;9.970;2022-10-22T05:38:20;11.50;96.60
35463;DHT22;21578;47.892;9.970;2022-10-22T05:43:09;11.50;96.60
35463;DHT22;21578;47.892;9.970;2022-10-22T05:47:56;11.60;96.60
35463;DHT22;21578;47.892;9.970;2022-10-22T05:52:43;11.50;96.60
35463;DHT22;21578;47.892;9.970;2022-10-22T05:57:30;11.60;96.60
35463;DHT22;21578;47.892;9.970;2022-10-22T06:02:19;11.60;96.60
35463;DHT22;21578;47.892;9.970;2022-10-22T06:07:08;11.60;96.60
35463;DHT22;21578;47.892;9.970;2022-10-22T06:11:59;11.70;96.60
35463;DHT22;21578;47.892;9.970;2022-10-22T06:16:46;11.70;96.60
35463;DHT22;21578;47.892;9.970;2022-10-22T06:26:30;11.80;96.60
35463;DHT22;21578;47.892;9.970;2022-10-22T06:31:17;11.70;96.60
35463;DHT22;21578;47.892;9.970;2022-10-22T06:36:05;11.90;96.60
35463;DHT22;21578;47.892;9.970;2022-10-22T06:45:40;11.80;96.60
35463;DHT22;21578;47.892;9.970;2022-10-22T06:50:27;11.90;96.60
35463;DHT22;21578;47.892;9.970;2022-10-22T06:55:14;11.90;96.60
35463;DHT22;21578;47.892;9.970;2022-10-22T07:00:01;11.90;96.60
35463;DHT22;21578;47.892;9.970;2022-10-22T07:04:51;12.00;96.60
35463;DHT22;21578;47.892;9.970;2022-10-22T07:09:38;12.00;96.60
35463;DHT22;21578;47.892;9.970;2022-10-22T07:14:25;12.00;96.60
35463;DHT22;21578;47.892;9.970;2022-10-22T07:19:13;12.10;96.60
35463;DHT22;21578;47.892;9.970;2022-10-22T07:24:01;12.20;96.60
35463;DHT22;21578;47.892;9.970;2022-10-22T07:28:48;12.20;96.60
35463;DHT22;21578;47.892;9.970;2022-10-22T07:33:36;12.20;96.60
35463;DHT22;21578;47.892;9.970;2022-10-22T07:38:23;12.20;96.60
35463;DHT22;21578;47.892;9.970;2022-10-22T07:43:11;12.20;96.60
35463;DHT22;21578;47.892;9.970;2022-10-22T07:47:58;12.30;96.60
35463;DHT22;21578;47.892;9.970;2022-10-22T07:52:46;12.30;96.60
35463;DHT22;21578;47.892;9.970;2022-10-22T07:57:36;12.30;96.60
35463;DHT22;21578;47.892;9.970;2022-10-22T08:02:24;12.40;96.60
35463;DHT22;21578;47.892;9.970;2022-10-22T08:07:11;12.40;96.60
35463;DHT22;21578;47.892;9.970;2022-10-22T08:11:58;12.50;96.60
35463;DHT22;21578;47.892;9.970;2022-10-22T08:16:45;12.50;96.60
35463;DHT22;21578;47.892;9.970;2022-10-22T08:21:33;12.60;96.60
35463;DHT22;21578;47.892;9.970;2022-10-22T08:26:20;12.60;96.60
35463;DHT22;21578;47.892;9.970;2022-10-22T08:31:08;12.60;96.60
35463;DHT22;21578;47.892;9.970;2022-10-22T08:35:54;12.60;96.60
35463;DHT22;21578;47.892;9.970;2022-10-22T08:40:46;12.60;96.60
35463;DHT22;21578;47.892;9.970;2022-10-22T08:45:39;12.60;96.60
35463;DHT22;21578;47.892;9.970;2022-10-22T08:50:32;12.70;96.60
35463;DHT22;21578;47.892;9.970;2022-10-22T08:55:23;12.70;96.60
35463;DHT22;21578;47.892;9.970;2022-10-22T09:00:15;12.80;96.60
35463;DHT22;21578;47.892;9.970;2022-10-22T09:05:15;12.90;96.60
35463;DHT22;21578;47.892;9.970;2022-10-22T09:10:07;12.90;96.60
35463;DHT22;21578;47.892;9.970;2022-10-22T09:14:55;13.00;96.60
35463;DHT22;21578;47.892;9.970;2022-10-22T09:19:51;13.10;96.60
35463;DHT22;21578;47.892;9.970;2022-10-22T09:24:44;13.10;96.60
35463;DHT22;21578;47.892;9.970;2022-10-22T09:29:32;13.20;96.60
35463;DHT22;21578;47.892;9.970;2022-10-22T09:34:20;13.30;96.60
35463;DHT22;21578;47.892;9.970;2022-10-22T09:39:22;13.60;96.60
35463;DHT22;21578;47.892;9.970;2022-10-22T09:44:12;13.60;96.60
35463;DHT22;21578;47.892;9.970;2022-10-22T09:49:02;13.70;96.60
35463;DHT22;21578;47.892;9.970;2022-10-22T09:53:56;13.80;96.60
35463;DHT22;21578;47.892;9.970;2022-10-22T09:58:46;13.90;96.60
35463;DHT22;21578;47.892;9.970;2022-10-22T10:03:35;14.10;96.60
35463;DHT22;21578;47.892;9.970;2022-10-22T10:08:23;14.10;96.60
35463;DHT22;21578;47.892;9.970;2022-10-22T10:13:21;14.20;96.60
35463;DHT22;21578;47.892;9.970;2022-10-22T10:18:23;14.30;96.60
35463;DHT22;21578;47.892;9.970;2022-10-22T10:23:18;14.60;96.60
35463;DHT22;21578;47.892;9.970;2022-10-22T10:28:24;14.70;96.60
35463;DHT22;21578;47.892;9.970;2022-10-22T10:33:21;14.70;96.60
35463;DHT22;21578;47.892;9.970;2022-10-22T10:38:31;14.80;96.60
35463;DHT22;21578;47.892;9.970;2022-10-22T10:43:26;15.00;96.60
35463;DHT22;21578;47.892;9.970;2022-10-22T10:48:35;15.10;96.60
35463;DHT22;21578;47.892;9.970;2022-10-22T10:53:33;15.30;96.60
35463;DHT22;21578;47.892;9.970;2022-10-22T10:58:30;15.50;96.60
35463;DHT22;21578;47.892;9.970;2022-10-22T11:03:53;15.70;96.60
35463;DHT22;21578;47.892;9.970;2022-10-22T11:08:49;15.90;96.60
35463;DHT22;21578;47.892;9.970;2022-10-22T11:13:43;16.00;96.60
35463;DHT22;21578;47.892;9.970;2022-10-22T11:18:36;15.80;96.60
35463;DHT22;21578;47.892;9.970;2022-10-22T11:23:33;15.50;96.60
35463;DHT22;21578;47.892;9.970;2022-10-22T11:28:25;15.50;96.60
35463;DHT22;21578;47.892;9.970;2022-10-22T11:33:17;15.70;96.60
35463;DHT22;21578;47.892;9.970;2022-10-22T11:38:06;16.10;96.60
35463;DHT22;21578;47.892;9.970;2022-10-22T11:42:57;16.00;96.60
35463;DHT22;21578;47.892;9.970;2022-10-22T11:47:54;15.60;96.60
35463;DHT22;21578;47.892;9.970;2022-10-22T11:52:53;15.70;96.60
35463;DHT22;21578;47.892;9.970;2022-10-22T11:57:41;15.90;96.60
35463;DHT22;21578;47.892;9.970;2022-10-22T12:02:39;16.10;96.60
35463;DHT22;21578;47.892;9.970;2022-10-22T12:07:33;16.50;96.60
35463;DHT22;21578;47.892;9.970;2022-10-22T12:12:20;16.80;96.60
35463;DHT22;21578;47.892;9.970;2022-10-22T12:17:09;17.00;96.60
35463;DHT22;21578;47.892;9.970;2022-10-22T12:22:06;17.10;96.60
35463;DHT22;21578;47.892;9.970;2022-10-22T12:26:57;17.20;96.60
35463;DHT22;21578;47.892;9.970;2022-10-22T12:31:45;17.30;96.20
35463;DHT22;21578;47.892;9.970;2022-10-22T12:36:34;17.40;96.60
35463;DHT22;21578;47.892;9.970;2022-10-22T12:41:29;17.50;95.70
35463;DHT22;21578;47.892;9.970;2022-10-22T12:46:16;17.40;95.20
35463;DHT22;21578;47.892;9.970;2022-10-22T12:51:05;17.30;95.60
35463;DHT22;21578;47.892;9.970;2022-10-22T12:55:55;17.20;96.60
35463;DHT22;21578;47.892;9.970;2022-10-22T13:00:45;17.20;95.90
35463;DHT22;21578;47.892;9.970;2022-10-22T13:05:33;17.20;96.30
35463;DHT22;21578;47.892;9.970;2022-10-22T13:10:25;17.20;95.50
35463;DHT22;21578;47.892;9.970;2022-10-22T13:15:20;17.30;95.60
35463;DHT22;21578;47.892;9.970;2022-10-22T13:20:19;17.20;94.20
35463;DHT22;21578;47.892;9.970;2022-10-22T13:25:22;17.00;95.40
35463;DHT22;21578;47.892;9.970;2022-10-22T13:30:22;17.00;95.70
35463;DHT22;21578;47.892;9.970;2022-10-22T13:35:15;17.10;95.50
35463;DHT22;21578;47.892;9.970;2022-10-22T13:40:10;17.30;94.90
35463;DHT22;21578;47.892;9.970;2022-10-22T13:44:57;17.40;94.80
35463;DHT22;21578;47.892;9.970;2022-10-22T13:49:44;17.40;94.80
35463;DHT22;21578;47.892;9.970;2022-10-22T13:54:33;17.60;94.50
35463;DHT22;21578;47.892;9.970;2022-10-22T13:59:22;17.80;93.00
35463;DHT22;21578;47.892;9.970;2022-10-22T14:04:11;17.90;93.00
35463;DHT22;21578;47.892;9.970;2022-10-22T14:09:01;18.00;91.00
35463;DHT22;21578;47.892;9.970;2022-10-22T14:13:50;18.00;89.50
35463;DHT22;21578;47.892;9.970;2022-10-22T14:18:37;17.80;89.90
35463;DHT22;21578;47.892;9.970;2022-10-22T14:23:25;17.70;91.60
35463;DHT22;21578;47.892;9.970;2022-10-22T14:28:13;17.70;92.20
35463;DHT22;21578;47.892;9.970;2022-10-22T14:33:05;17.70;92.30
35463;DHT22;21578;47.892;9.970;2022-10-22T14:37:55;17.70;92.20
35463;DHT22;21578;47.892;9.970;2022-10-22T14:42:45;17.60;92.60
35463;DHT22;21578;47.892;9.970;2022-10-22T14:47:32;17.50;93.60
35463;DHT22;21578;47.892;9.970;2022-10-22T14:52:21;17.50;90.80
35463;DHT22;21578;47.892;9.970;2022-10-22T22:02:07;11.40;96.60
35463;DHT22;21578;47.892;9.970;2022-10-22T22:06:54;11.40;96.60
35463;DHT22;21578;47.892;9.970;2022-10-22T22:11:41;11.40;96.60
35463;DHT22;21578;47.892;9.970;2022-10-22T22:16:30;11.20;96.60
35463;DHT22;21578;47.892;9.970;2022-10-22T22:21:20;11.20;96.60
35463;DHT22;21578;47.892;9.970;2022-10-22T22:26:08;11.10;96.60
35463;DHT22;21578;47.892;9.970;2022-10-22T22:30:55;11.10;96.60
35463;DHT22;21578;47.892;9.970;2022-10-22T22:35:42;11.10;96.60
35463;DHT22;21578;47.892;9.970;2022-10-22T22:40:30;11.10;96.60
35463;DHT22;21578;47.892;9.970;2022-10-22T22:45:17;11.10;96.60
35463;DHT22;21578;47.892;9.970;2022-10-22T22:50:05;11.10;96.60
35463;DHT22;21578;47.892;9.970;2022-10-22T22:54:52;11.10;96.60
35463;DHT22;21578;47.892;9.970;2022-10-22T22:59:41;11.10;96.60
35463;DHT22;21578;47.892;9.970;2022-10-22T23:04:28;11.10;96.60
35463;DHT22;21578;47.892;9.970;2022-10-22T23:09:16;11.00;96.60
35463;DHT22;21578;47.892;9.970;2022-10-22T23:14:05;11.00;96.60
35463;DHT22;21578;47.892;9.970;2022-10-22T23:18:54;10.90;96.60
35463;DHT22;21578;47.892;9.970;2022-10-22T23:23:42;10.80;96.60
35463;DHT22;21578;47.892;9.970;2022-10-22T23:28:29;10.70;96.60
35463;DHT22;21578;47.892;9.970;2022-10-22T23:33:17;10.60;96.60
35463;DHT22;21578;47.892;9.970;2022-10-22T23:38:07;10.60;96.60
35463;DHT22;21578;47.892;9.970;2022-10-22T23:42:54;10.60;96.60
35463;DHT22;21578;47.892;9.970;2022-10-22T23:47:41;10.70;96.60
35463;DHT22;21578;47.892;9.970;2022-10-22T23:52:27;10.70;96.60
35463;DHT22;21578;47.892;9.970;2022-10-22T23:57:16;10.60;96.60
